sensor_id;sensor_type;location;lat;lon;timestamp;P1;durP1;ratioP1;P2;durP2;ratioP2
47812;SDS011;34221;45.296;9.516;2022-08-30T00:00:25;27.33;;;22.58;;
47812;SDS011;34221;45.296;9.516;2022-08-30T00:00:59;28.83;;;23.70;;
47812;SDS011;34221;45.296;9.516;2022-08-30T00:01:36;32.05;;;23.77;;
47812;SDS011;34221;45.296;9.516;2022-08-30T00:01:51;30.52;;;23.17;;
47812;SDS011;34221;45.296;9.516;2022-08-30T00:02:06;28.13;;;23.45;;
47812;SDS011;34221;45.296;9.516;2022-08-30T00:02:21;29.83;;;24.60;;
47812;SDS011;34221;45.296;9.516;2022-08-30T00:02:36;31.42;;;24.88;;
47812;SDS011;34221;45.296;9.516;2022-08-30T00:02:52;31.77;;;24.38;;
47812;SDS011;34221;45.296;9.516;2022-08-30T00:03:08;29.33;;;23.85;;
47812;SDS011;34221;45.296;9.516;2022-08-30T00:03:26;28.55;;;23.85;;
47812;SDS011;34221;45.296;9.516;2022-08-30T00:03:42;29.80;;;23.50;;
47812;SDS011;34221;45.296;9.516;2022-08-30T00:03:59;28.33;;;23.35;;
47812;SDS011;34221;45.296;9.516;2022-08-30T00:04:15;28.13;;;23.85;;
47812;SDS011;34221;45.296;9.516;2022-08-30T00:04:30;29.23;;;23.30;;
47812;SDS011;34221;45.296;9.516;2022-08-30T00:04:45;29.05;;;23.38;;
47812;SDS011;34221;45.296;9.516;2022-08-30T00:05:03;30.05;;;23.95;;
47812;SDS011;34221;45.296;9.516;2022-08-30T00:05:19;30.90;;;23.45;;
47812;SDS011;34221;45.296;9.516;2022-08-30T00:05:34;30.35;;;23.42;;
47812;SDS011;34221;45.296;9.516;2022-08-30T00:05:49;29.50;;;23.48;;
47812;SDS011;34221;45.296;9.516;2022-08-30T00:06:05;27.75;;;23.55;;
47812;SDS011;34221;45.296;9.516;2022-08-30T00:06:23;28.88;;;23.42;;
47812;SDS011;34221;45.296;9.516;2022-08-30T00:06:40;30.42;;;23.33;;
47812;SDS011;34221;45.296;9.516;2022-08-30T00:06:55;30.77;;;23.48;;
47812;SDS011;34221;45.296;9.516;2022-08-30T00:07:10;29.50;;;23.17;;
47812;SDS011;34221;45.296;9.516;2022-08-30T00:07:25;28.92;;;22.80;;
47812;SDS011;34221;45.296;9.516;2022-08-30T00:07:40;28.55;;;22.35;;
47812;SDS011;34221;45.296;9.516;2022-08-30T00:07:56;29.80;;;23.33;;
47812;SDS011;34221;45.296;9.516;2022-08-30T00:08:11;31.17;;;24.13;;
47812;SDS011;34221;45.296;9.516;2022-08-30T00:08:27;29.88;;;23.90;;
47812;SDS011;34221;45.296;9.516;2022-08-30T00:08:42;32.25;;;23.90;;
47812;SDS011;34221;45.296;9.516;2022-08-30T00:08:59;32.13;;;24.13;;
47812;SDS011;34221;45.296;9.516;2022-08-30T00:09:14;30.10;;;24.17;;
47812;SDS011;34221;45.296;9.516;2022-08-30T00:09:29;29.95;;;23.73;;
47812;SDS011;34221;45.296;9.516;2022-08-30T00:09:45;28.20;;;23.48;;
47812;SDS011;34221;45.296;9.516;2022-08-30T00:10:01;29.73;;;23.95;;
47812;SDS011;34221;45.296;9.516;2022-08-30T00:10:17;34.90;;;24.08;;
47812;SDS011;34221;45.296;9.516;2022-08-30T00:10:33;34.72;;;23.88;;
47812;SDS011;34221;45.296;9.516;2022-08-30T00:10:48;31.50;;;23.80;;
47812;SDS011;34221;45.296;9.516;2022-08-30T00:11:05;29.55;;;23.30;;
47812;SDS011;34221;45.296;9.516;2022-08-30T00:11:24;27.48;;;23.83;;
47812;SDS011;34221;45.296;9.516;2022-08-30T00:11:41;27.38;;;23.20;;
47812;SDS011;34221;45.296;9.516;2022-08-30T00:11:56;29.60;;;23.23;;
47812;SDS011;34221;45.296;9.516;2022-08-30T00:12:11;29.52;;;22.98;;
47812;SDS011;34221;45.296;9.516;2022-08-30T00:12:26;28.70;;;23.42;;
47812;SDS011;34221;45.296;9.516;2022-08-30T00:12:41;30.25;;;24.00;;
47812;SDS011;34221;45.296;9.516;2022-08-30T00:12:57;29.95;;;23.95;;
47812;SDS011;34221;45.296;9.516;2022-08-30T00:13:12;29.35;;;23.83;;
47812;SDS011;34221;45.296;9.516;2022-08-30T00:13:46;31.37;;;24.90;;
47812;SDS011;34221;45.296;9.516;2022-08-30T00:14:04;29.48;;;24.42;;
47812;SDS011;34221;45.296;9.516;2022-08-30T00:14:20;30.60;;;24.07;;
47812;SDS011;34221;45.296;9.516;2022-08-30T00:14:35;29.58;;;23.35;;
47812;SDS011;34221;45.296;9.516;2022-08-30T00:14:50;27.63;;;23.00;;
47812;SDS011;34221;45.296;9.516;2022-08-30T00:15:06;29.17;;;24.38;;
47812;SDS011;34221;45.296;9.516;2022-08-30T00:15:22;30.65;;;24.85;;
47812;SDS011;34221;45.296;9.516;2022-08-30T00:15:39;30.92;;;24.27;;
47812;SDS011;34221;45.296;9.516;2022-08-30T00:15:56;28.83;;;23.55;;
47812;SDS011;34221;45.296;9.516;2022-08-30T00:16:11;29.80;;;23.92;;
47812;SDS011;34221;45.296;9.516;2022-08-30T00:16:28;31.08;;;24.00;;
47812;SDS011;34221;45.296;9.516;2022-08-30T00:16:42;30.30;;;23.10;;
47812;SDS011;34221;45.296;9.516;2022-08-30T00:16:57;30.35;;;23.35;;
47812;SDS011;34221;45.296;9.516;2022-08-30T00:17:12;34.50;;;24.58;;
47812;SDS011;34221;45.296;9.516;2022-08-30T00:17:27;34.00;;;24.80;;
47812;SDS011;34221;45.296;9.516;2022-08-30T00:17:42;29.50;;;24.60;;
47812;SDS011;34221;45.296;9.516;2022-08-30T00:17:58;28.60;;;24.40;;
47812;SDS011;34221;45.296;9.516;2022-08-30T00:18:13;28.83;;;24.15;;
47812;SDS011;34221;45.296;9.516;2022-08-30T00:18:31;29.42;;;23.15;;
47812;SDS011;34221;45.296;9.516;2022-08-30T00:18:48;29.60;;;23.77;;
47812;SDS011;34221;45.296;9.516;2022-08-30T00:19:03;28.42;;;23.42;;
47812;SDS011;34221;45.296;9.516;2022-08-30T00:19:38;31.02;;;24.35;;
47812;SDS011;34221;45.296;9.516;2022-08-30T00:19:53;31.63;;;24.50;;
47812;SDS011;34221;45.296;9.516;2022-08-30T00:20:11;31.17;;;23.80;;
47812;SDS011;34221;45.296;9.516;2022-08-30T00:20:32;31.63;;;23.58;;
47812;SDS011;34221;45.296;9.516;2022-08-30T00:20:49;29.88;;;24.45;;
47812;SDS011;34221;45.296;9.516;2022-08-30T00:21:05;29.45;;;23.70;;
47812;SDS011;34221;45.296;9.516;2022-08-30T00:21:22;29.88;;;24.30;;
47812;SDS011;34221;45.296;9.516;2022-08-30T00:21:37;31.17;;;24.50;;
47812;SDS011;34221;45.296;9.516;2022-08-30T00:21:52;33.38;;;23.50;;
47812;SDS011;34221;45.296;9.516;2022-08-30T00:22:07;31.42;;;24.02;;
47812;SDS011;34221;45.296;9.516;2022-08-30T00:22:23;28.90;;;24.88;;
47812;SDS011;34221;45.296;9.516;2022-08-30T00:22:38;29.53;;;24.30;;
47812;SDS011;34221;45.296;9.516;2022-08-30T00:22:54;36.08;;;24.38;;
47812;SDS011;34221;45.296;9.516;2022-08-30T00:23:09;37.65;;;25.05;;
47812;SDS011;34221;45.296;9.516;2022-08-30T00:23:24;30.73;;;24.60;;
47812;SDS011;34221;45.296;9.516;2022-08-30T00:23:39;27.60;;;23.67;;
47812;SDS011;34221;45.296;9.516;2022-08-30T00:23:55;28.40;;;23.73;;
47812;SDS011;34221;45.296;9.516;2022-08-30T00:24:10;31.00;;;24.65;;
47812;SDS011;34221;45.296;9.516;2022-08-30T00:24:25;31.08;;;24.50;;
47812;SDS011;34221;45.296;9.516;2022-08-30T00:24:40;30.67;;;25.00;;
47812;SDS011;34221;45.296;9.516;2022-08-30T00:24:55;29.55;;;24.88;;
47812;SDS011;34221;45.296;9.516;2022-08-30T00:25:11;29.88;;;24.83;;
47812;SDS011;34221;45.296;9.516;2022-08-30T00:25:26;31.65;;;25.17;;
47812;SDS011;34221;45.296;9.516;2022-08-30T00:25:42;31.45;;;23.67;;
47812;SDS011;34221;45.296;9.516;2022-08-30T00:25:58;32.30;;;24.35;;
47812;SDS011;34221;45.296;9.516;2022-08-30T00:26:13;32.40;;;25.42;;
47812;SDS011;34221;45.296;9.516;2022-08-30T00:26:28;30.95;;;25.65;;
47812;SDS011;34221;45.296;9.516;2022-08-30T00:26:43;30.95;;;25.52;;
47812;SDS011;34221;45.296;9.516;2022-08-30T00:26:58;31.30;;;24.77;;
47812;SDS011;34221;45.296;9.516;2022-08-30T00:27:13;31.23;;;24.92;;
47812;SDS011;34221;45.296;9.516;2022-08-30T00:27:28;31.08;;;25.35;;
47812;SDS011;34221;45.296;9.516;2022-08-30T00:27:44;29.48;;;24.63;;
47812;SDS011;34221;45.296;9.516;2022-08-30T00:27:59;31.73;;;25.10;;
47812;SDS011;34221;45.296;9.516;2022-08-30T00:28:14;33.17;;;25.58;;
47812;SDS011;34221;45.296;9.516;2022-08-30T00:28:30;32.45;;;24.90;;
47812;SDS011;34221;45.296;9.516;2022-08-30T00:28:47;31.93;;;25.30;;
47812;SDS011;34221;45.296;9.516;2022-08-30T00:29:01;32.17;;;25.97;;
47812;SDS011;34221;45.296;9.516;2022-08-30T00:29:17;33.17;;;25.63;;
47812;SDS011;34221;45.296;9.516;2022-08-30T00:29:31;33.43;;;25.33;;
47812;SDS011;34221;45.296;9.516;2022-08-30T00:29:46;32.90;;;25.83;;
47812;SDS011;34221;45.296;9.516;2022-08-30T00:30:01;32.42;;;26.40;;
47812;SDS011;34221;45.296;9.516;2022-08-30T00:30:18;31.17;;;25.83;;
47812;SDS011;34221;45.296;9.516;2022-08-30T00:30:34;33.22;;;25.48;;
47812;SDS011;34221;45.296;9.516;2022-08-30T00:30:50;32.88;;;25.00;;
47812;SDS011;34221;45.296;9.516;2022-08-30T00:31:05;31.40;;;25.65;;
47812;SDS011;34221;45.296;9.516;2022-08-30T00:31:20;34.30;;;26.48;;
47812;SDS011;34221;45.296;9.516;2022-08-30T00:31:35;36.38;;;26.45;;
47812;SDS011;34221;45.296;9.516;2022-08-30T00:31:50;34.05;;;25.75;;
47812;SDS011;34221;45.296;9.516;2022-08-30T00:32:05;30.85;;;24.73;;
47812;SDS011;34221;45.296;9.516;2022-08-30T00:32:21;29.80;;;24.27;;
47812;SDS011;34221;45.296;9.516;2022-08-30T00:32:37;30.15;;;24.55;;
47812;SDS011;34221;45.296;9.516;2022-08-30T00:32:52;33.40;;;24.48;;
47812;SDS011;34221;45.296;9.516;2022-08-30T00:33:07;33.22;;;24.67;;
47812;SDS011;34221;45.296;9.516;2022-08-30T00:33:23;30.50;;;25.08;;
47812;SDS011;34221;45.296;9.516;2022-08-30T00:33:38;31.17;;;25.17;;
47812;SDS011;34221;45.296;9.516;2022-08-30T00:33:53;31.60;;;25.48;;
47812;SDS011;34221;45.296;9.516;2022-08-30T00:34:08;32.35;;;25.95;;
47812;SDS011;34221;45.296;9.516;2022-08-30T00:34:23;32.00;;;25.75;;
47812;SDS011;34221;45.296;9.516;2022-08-30T00:34:38;33.47;;;25.52;;
47812;SDS011;34221;45.296;9.516;2022-08-30T00:34:53;33.30;;;25.77;;
47812;SDS011;34221;45.296;9.516;2022-08-30T00:35:09;32.67;;;25.92;;
47812;SDS011;34221;45.296;9.516;2022-08-30T00:35:27;31.90;;;25.92;;
47812;SDS011;34221;45.296;9.516;2022-08-30T00:35:43;29.45;;;25.42;;
47812;SDS011;34221;45.296;9.516;2022-08-30T00:35:57;29.52;;;25.08;;
47812;SDS011;34221;45.296;9.516;2022-08-30T00:36:13;31.00;;;25.08;;
47812;SDS011;34221;45.296;9.516;2022-08-30T00:36:29;30.15;;;25.13;;
47812;SDS011;34221;45.296;9.516;2022-08-30T00:36:44;30.55;;;25.13;;
47812;SDS011;34221;45.296;9.516;2022-08-30T00:36:59;32.07;;;25.70;;
47812;SDS011;34221;45.296;9.516;2022-08-30T00:37:14;31.25;;;25.90;;
47812;SDS011;34221;45.296;9.516;2022-08-30T00:37:29;30.88;;;25.63;;
47812;SDS011;34221;45.296;9.516;2022-08-30T00:37:44;32.33;;;25.83;;
47812;SDS011;34221;45.296;9.516;2022-08-30T00:38:00;31.63;;;25.38;;
47812;SDS011;34221;45.296;9.516;2022-08-30T00:38:15;31.67;;;25.30;;
47812;SDS011;34221;45.296;9.516;2022-08-30T00:38:30;32.80;;;26.08;;
47812;SDS011;34221;45.296;9.516;2022-08-30T00:38:45;31.35;;;25.63;;
47812;SDS011;34221;45.296;9.516;2022-08-30T00:39:00;31.23;;;25.55;;
47812;SDS011;34221;45.296;9.516;2022-08-30T00:39:15;32.40;;;25.98;;
47812;SDS011;34221;45.296;9.516;2022-08-30T00:39:30;32.10;;;25.65;;
47812;SDS011;34221;45.296;9.516;2022-08-30T00:39:45;31.50;;;25.65;;
47812;SDS011;34221;45.296;9.516;2022-08-30T00:40:01;32.15;;;26.25;;
47812;SDS011;34221;45.296;9.516;2022-08-30T00:40:19;32.83;;;25.67;;
47812;SDS011;34221;45.296;9.516;2022-08-30T00:40:35;31.38;;;25.45;;
47812;SDS011;34221;45.296;9.516;2022-08-30T00:40:52;33.25;;;26.08;;
47812;SDS011;34221;45.296;9.516;2022-08-30T00:41:07;33.70;;;25.90;;
47812;SDS011;34221;45.296;9.516;2022-08-30T00:41:22;30.98;;;25.35;;
47812;SDS011;34221;45.296;9.516;2022-08-30T00:41:37;29.35;;;24.75;;
47812;SDS011;34221;45.296;9.516;2022-08-30T00:41:52;33.35;;;26.13;;
47812;SDS011;34221;45.296;9.516;2022-08-30T00:42:07;33.33;;;26.13;;
47812;SDS011;34221;45.296;9.516;2022-08-30T00:42:23;31.75;;;25.25;;
47812;SDS011;34221;45.296;9.516;2022-08-30T00:42:39;30.83;;;25.73;;
47812;SDS011;34221;45.296;9.516;2022-08-30T00:42:57;29.90;;;25.33;;
47812;SDS011;34221;45.296;9.516;2022-08-30T00:43:24;30.73;;;25.35;;
47812;SDS011;34221;45.296;9.516;2022-08-30T00:43:41;30.50;;;24.63;;
47812;SDS011;34221;45.296;9.516;2022-08-30T00:43:56;30.07;;;24.70;;
47812;SDS011;34221;45.296;9.516;2022-08-30T00:44:12;30.80;;;25.10;;
47812;SDS011;34221;45.296;9.516;2022-08-30T00:44:27;31.35;;;25.30;;
47812;SDS011;34221;45.296;9.516;2022-08-30T00:44:42;35.07;;;26.40;;
47812;SDS011;34221;45.296;9.516;2022-08-30T00:44:58;34.65;;;25.70;;
47812;SDS011;34221;45.296;9.516;2022-08-30T00:45:17;29.13;;;23.98;;
47812;SDS011;34221;45.296;9.516;2022-08-30T00:45:42;29.70;;;24.85;;
47812;SDS011;34221;45.296;9.516;2022-08-30T00:45:57;31.55;;;25.52;;
47812;SDS011;34221;45.296;9.516;2022-08-30T00:46:12;31.05;;;24.83;;
47812;SDS011;34221;45.296;9.516;2022-08-30T00:46:27;30.98;;;25.02;;
47812;SDS011;34221;45.296;9.516;2022-08-30T00:46:42;32.45;;;26.00;;
47812;SDS011;34221;45.296;9.516;2022-08-30T00:46:58;34.60;;;26.00;;
47812;SDS011;34221;45.296;9.516;2022-08-30T00:47:12;32.85;;;25.58;;
47812;SDS011;34221;45.296;9.516;2022-08-30T00:47:28;30.58;;;24.83;;
47812;SDS011;34221;45.296;9.516;2022-08-30T00:47:42;32.90;;;25.25;;
47812;SDS011;34221;45.296;9.516;2022-08-30T00:47:58;32.45;;;25.77;;
47812;SDS011;34221;45.296;9.516;2022-08-30T00:48:14;33.13;;;25.33;;
47812;SDS011;34221;45.296;9.516;2022-08-30T00:48:29;31.58;;;24.52;;
47812;SDS011;34221;45.296;9.516;2022-08-30T00:48:46;30.05;;;24.55;;
47812;SDS011;34221;45.296;9.516;2022-08-30T00:49:04;31.92;;;25.52;;
47812;SDS011;34221;45.296;9.516;2022-08-30T00:49:22;31.38;;;25.33;;
47812;SDS011;34221;45.296;9.516;2022-08-30T00:49:39;31.65;;;25.15;;
47812;SDS011;34221;45.296;9.516;2022-08-30T00:49:59;32.70;;;24.95;;
47812;SDS011;34221;45.296;9.516;2022-08-30T00:50:37;31.10;;;24.38;;
47812;SDS011;34221;45.296;9.516;2022-08-30T00:50:58;29.73;;;24.42;;
47812;SDS011;34221;45.296;9.516;2022-08-30T00:51:18;28.90;;;24.40;;
47812;SDS011;34221;45.296;9.516;2022-08-30T00:51:34;29.73;;;24.25;;
47812;SDS011;34221;45.296;9.516;2022-08-30T00:51:50;31.92;;;25.08;;
47812;SDS011;34221;45.296;9.516;2022-08-30T00:52:06;33.35;;;25.33;;
47812;SDS011;34221;45.296;9.516;2022-08-30T00:52:22;35.40;;;24.60;;
47812;SDS011;34221;45.296;9.516;2022-08-30T00:52:38;34.17;;;24.75;;
47812;SDS011;34221;45.296;9.516;2022-08-30T00:52:58;31.05;;;24.60;;
47812;SDS011;34221;45.296;9.516;2022-08-30T00:53:16;27.83;;;24.25;;
47812;SDS011;34221;45.296;9.516;2022-08-30T00:53:37;28.58;;;24.70;;
47812;SDS011;34221;45.296;9.516;2022-08-30T00:54:03;30.75;;;24.52;;
47812;SDS011;34221;45.296;9.516;2022-08-30T00:54:18;32.05;;;24.08;;
47812;SDS011;34221;45.296;9.516;2022-08-30T00:54:34;32.70;;;24.38;;
47812;SDS011;34221;45.296;9.516;2022-08-30T00:54:51;29.80;;;24.67;;
47812;SDS011;34221;45.296;9.516;2022-08-30T00:55:06;28.95;;;23.90;;
47812;SDS011;34221;45.296;9.516;2022-08-30T00:55:22;29.73;;;24.08;;
47812;SDS011;34221;45.296;9.516;2022-08-30T00:55:39;29.98;;;25.05;;
47812;SDS011;34221;45.296;9.516;2022-08-30T00:55:55;30.67;;;25.08;;
47812;SDS011;34221;45.296;9.516;2022-08-30T00:56:48;29.17;;;24.65;;
47812;SDS011;34221;45.296;9.516;2022-08-30T00:57:03;28.88;;;24.20;;
47812;SDS011;34221;45.296;9.516;2022-08-30T00:57:19;31.23;;;25.25;;
47812;SDS011;34221;45.296;9.516;2022-08-30T00:57:34;31.52;;;25.05;;
47812;SDS011;34221;45.296;9.516;2022-08-30T00:57:50;30.23;;;24.23;;
47812;SDS011;34221;45.296;9.516;2022-08-30T00:58:12;29.00;;;24.50;;
47812;SDS011;34221;45.296;9.516;2022-08-30T00:58:36;27.58;;;23.83;;
47812;SDS011;34221;45.296;9.516;2022-08-30T00:58:56;29.00;;;24.17;;
47812;SDS011;34221;45.296;9.516;2022-08-30T00:59:14;32.85;;;25.63;;
47812;SDS011;34221;45.296;9.516;2022-08-30T00:59:29;33.70;;;25.23;;
47812;SDS011;34221;45.296;9.516;2022-08-30T00:59:45;30.80;;;24.52;;
47812;SDS011;34221;45.296;9.516;2022-08-30T01:00:03;29.98;;;25.23;;
47812;SDS011;34221;45.296;9.516;2022-08-30T01:00:20;31.92;;;24.73;;
47812;SDS011;34221;45.296;9.516;2022-08-30T01:00:35;32.63;;;24.92;;
47812;SDS011;34221;45.296;9.516;2022-08-30T01:00:51;30.38;;;24.30;;
47812;SDS011;34221;45.296;9.516;2022-08-30T01:01:08;30.77;;;24.80;;
47812;SDS011;34221;45.296;9.516;2022-08-30T01:01:25;31.15;;;24.83;;
47812;SDS011;34221;45.296;9.516;2022-08-30T01:01:40;29.42;;;24.23;;
47812;SDS011;34221;45.296;9.516;2022-08-30T01:01:56;29.33;;;24.65;;
47812;SDS011;34221;45.296;9.516;2022-08-30T01:02:11;29.50;;;24.83;;
47812;SDS011;34221;45.296;9.516;2022-08-30T01:02:26;29.35;;;24.92;;
47812;SDS011;34221;45.296;9.516;2022-08-30T01:02:44;30.55;;;24.88;;
47812;SDS011;34221;45.296;9.516;2022-08-30T01:02:58;30.63;;;24.98;;
47812;SDS011;34221;45.296;9.516;2022-08-30T01:03:13;30.25;;;25.58;;
47812;SDS011;34221;45.296;9.516;2022-08-30T01:03:29;31.40;;;25.70;;
47812;SDS011;34221;45.296;9.516;2022-08-30T01:03:44;30.65;;;25.25;;
47812;SDS011;34221;45.296;9.516;2022-08-30T01:04:00;28.10;;;24.88;;
47812;SDS011;34221;45.296;9.516;2022-08-30T01:04:17;30.20;;;25.08;;
47812;SDS011;34221;45.296;9.516;2022-08-30T01:04:34;32.22;;;25.67;;
47812;SDS011;34221;45.296;9.516;2022-08-30T01:04:52;31.58;;;25.52;;
47812;SDS011;34221;45.296;9.516;2022-08-30T01:05:09;32.53;;;25.73;;
47812;SDS011;34221;45.296;9.516;2022-08-30T01:05:25;32.28;;;25.55;;
47812;SDS011;34221;45.296;9.516;2022-08-30T01:05:40;31.23;;;25.50;;
47812;SDS011;34221;45.296;9.516;2022-08-30T01:05:56;31.65;;;25.98;;
47812;SDS011;34221;45.296;9.516;2022-08-30T01:06:12;33.55;;;26.15;;
47812;SDS011;34221;45.296;9.516;2022-08-30T01:06:29;35.53;;;25.83;;
47812;SDS011;34221;45.296;9.516;2022-08-30T01:06:46;32.45;;;25.40;;
47812;SDS011;34221;45.296;9.516;2022-08-30T01:07:01;30.67;;;25.50;;
47812;SDS011;34221;45.296;9.516;2022-08-30T01:07:16;29.63;;;25.05;;
47812;SDS011;34221;45.296;9.516;2022-08-30T01:07:32;30.48;;;25.58;;
47812;SDS011;34221;45.296;9.516;2022-08-30T01:07:48;30.88;;;25.70;;
47812;SDS011;34221;45.296;9.516;2022-08-30T01:08:04;31.05;;;25.70;;
47812;SDS011;34221;45.296;9.516;2022-08-30T01:08:19;31.88;;;26.15;;
47812;SDS011;34221;45.296;9.516;2022-08-30T01:08:35;32.78;;;26.20;;
47812;SDS011;34221;45.296;9.516;2022-08-30T01:08:52;33.50;;;26.45;;
47812;SDS011;34221;45.296;9.516;2022-08-30T01:09:26;36.45;;;25.70;;
47812;SDS011;34221;45.296;9.516;2022-08-30T01:09:41;38.83;;;25.90;;
47812;SDS011;34221;45.296;9.516;2022-08-30T01:09:57;34.95;;;26.05;;
47812;SDS011;34221;45.296;9.516;2022-08-30T01:10:12;32.60;;;26.15;;
47812;SDS011;34221;45.296;9.516;2022-08-30T01:10:30;33.53;;;26.63;;
47812;SDS011;34221;45.296;9.516;2022-08-30T01:10:50;32.13;;;26.17;;
47812;SDS011;34221;45.296;9.516;2022-08-30T01:11:07;33.28;;;26.52;;
47812;SDS011;34221;45.296;9.516;2022-08-30T01:11:22;33.97;;;26.88;;
47812;SDS011;34221;45.296;9.516;2022-08-30T01:11:38;33.28;;;26.85;;
47812;SDS011;34221;45.296;9.516;2022-08-30T01:11:56;32.97;;;27.30;;
47812;SDS011;34221;45.296;9.516;2022-08-30T01:12:11;31.80;;;26.35;;
47812;SDS011;34221;45.296;9.516;2022-08-30T01:12:27;31.42;;;25.83;;
47812;SDS011;34221;45.296;9.516;2022-08-30T01:12:43;32.10;;;26.00;;
47812;SDS011;34221;45.296;9.516;2022-08-30T01:12:59;35.97;;;26.70;;
47812;SDS011;34221;45.296;9.516;2022-08-30T01:13:14;37.60;;;27.20;;
47812;SDS011;34221;45.296;9.516;2022-08-30T01:13:30;35.05;;;26.73;;
47812;SDS011;34221;45.296;9.516;2022-08-30T01:13:47;33.50;;;26.73;;
47812;SDS011;34221;45.296;9.516;2022-08-30T01:14:03;33.95;;;26.55;;
47812;SDS011;34221;45.296;9.516;2022-08-30T01:14:21;34.80;;;26.67;;
47812;SDS011;34221;45.296;9.516;2022-08-30T01:14:36;34.92;;;27.63;;
47812;SDS011;34221;45.296;9.516;2022-08-30T01:14:51;36.30;;;27.60;;
47812;SDS011;34221;45.296;9.516;2022-08-30T01:15:06;34.15;;;26.40;;
47812;SDS011;34221;45.296;9.516;2022-08-30T01:15:24;30.73;;;25.87;;
47812;SDS011;34221;45.296;9.516;2022-08-30T01:15:40;32.87;;;27.47;;
47812;SDS011;34221;45.296;9.516;2022-08-30T01:15:57;34.35;;;27.48;;
47812;SDS011;34221;45.296;9.516;2022-08-30T01:16:13;31.98;;;26.08;;
47812;SDS011;34221;45.296;9.516;2022-08-30T01:16:30;32.38;;;25.88;;
47812;SDS011;34221;45.296;9.516;2022-08-30T01:16:47;34.10;;;25.52;;
47812;SDS011;34221;45.296;9.516;2022-08-30T01:17:03;34.38;;;26.30;;
47812;SDS011;34221;45.296;9.516;2022-08-30T01:17:19;32.70;;;26.88;;
47812;SDS011;34221;45.296;9.516;2022-08-30T01:17:34;32.53;;;26.85;;
47812;SDS011;34221;45.296;9.516;2022-08-30T01:17:50;35.22;;;28.05;;
47812;SDS011;34221;45.296;9.516;2022-08-30T01:18:05;36.63;;;27.90;;
47812;SDS011;34221;45.296;9.516;2022-08-30T01:18:21;33.17;;;26.80;;
47812;SDS011;34221;45.296;9.516;2022-08-30T01:18:37;32.25;;;26.50;;
47812;SDS011;34221;45.296;9.516;2022-08-30T01:18:52;33.20;;;26.42;;
47812;SDS011;34221;45.296;9.516;2022-08-30T01:19:54;34.85;;;28.15;;
47812;SDS011;34221;45.296;9.516;2022-08-30T01:20:16;33.60;;;26.35;;
47812;SDS011;34221;45.296;9.516;2022-08-30T01:20:42;35.15;;;27.83;;
47812;SDS011;34221;45.296;9.516;2022-08-30T01:21:36;32.58;;;26.77;;
47812;SDS011;34221;45.296;9.516;2022-08-30T01:22:07;33.63;;;26.45;;
47812;SDS011;34221;45.296;9.516;2022-08-30T01:23:04;32.85;;;26.73;;
47812;SDS011;34221;45.296;9.516;2022-08-30T01:23:32;31.58;;;26.23;;
47812;SDS011;34221;45.296;9.516;2022-08-30T01:23:50;33.53;;;26.73;;
47812;SDS011;34221;45.296;9.516;2022-08-30T01:24:09;32.95;;;26.67;;
47812;SDS011;34221;45.296;9.516;2022-08-30T01:24:25;31.88;;;26.50;;
47812;SDS011;34221;45.296;9.516;2022-08-30T01:24:40;32.17;;;26.48;;
47812;SDS011;34221;45.296;9.516;2022-08-30T01:24:56;32.80;;;26.73;;
47812;SDS011;34221;45.296;9.516;2022-08-30T01:25:13;32.90;;;26.15;;
47812;SDS011;34221;45.296;9.516;2022-08-30T01:25:34;32.47;;;25.83;;
47812;SDS011;34221;45.296;9.516;2022-08-30T01:25:51;32.92;;;27.05;;
47812;SDS011;34221;45.296;9.516;2022-08-30T01:26:07;33.65;;;26.80;;
47812;SDS011;34221;45.296;9.516;2022-08-30T01:26:23;32.05;;;25.77;;
47812;SDS011;34221;45.296;9.516;2022-08-30T01:26:41;31.88;;;26.63;;
47812;SDS011;34221;45.296;9.516;2022-08-30T01:26:56;34.40;;;27.65;;
47812;SDS011;34221;45.296;9.516;2022-08-30T01:27:15;33.90;;;27.13;;
47812;SDS011;34221;45.296;9.516;2022-08-30T01:27:31;31.73;;;25.90;;
47812;SDS011;34221;45.296;9.516;2022-08-30T01:28:00;32.55;;;26.40;;
47812;SDS011;34221;45.296;9.516;2022-08-30T01:28:22;34.80;;;27.48;;
47812;SDS011;34221;45.296;9.516;2022-08-30T01:28:40;35.15;;;27.05;;
47812;SDS011;34221;45.296;9.516;2022-08-30T01:28:56;34.85;;;26.17;;
47812;SDS011;34221;45.296;9.516;2022-08-30T01:29:18;34.78;;;26.85;;
47812;SDS011;34221;45.296;9.516;2022-08-30T01:29:36;35.50;;;27.08;;
47812;SDS011;34221;45.296;9.516;2022-08-30T01:29:51;35.67;;;27.13;;
47812;SDS011;34221;45.296;9.516;2022-08-30T01:30:08;35.85;;;27.23;;
47812;SDS011;34221;45.296;9.516;2022-08-30T01:30:23;34.35;;;27.30;;
47812;SDS011;34221;45.296;9.516;2022-08-30T01:30:38;34.90;;;27.05;;
47812;SDS011;34221;45.296;9.516;2022-08-30T01:30:56;35.35;;;26.90;;
47812;SDS011;34221;45.296;9.516;2022-08-30T01:31:11;34.53;;;26.92;;
47812;SDS011;34221;45.296;9.516;2022-08-30T01:31:26;33.50;;;26.13;;
47812;SDS011;34221;45.296;9.516;2022-08-30T01:31:41;34.58;;;26.55;;
47812;SDS011;34221;45.296;9.516;2022-08-30T01:31:56;35.88;;;27.65;;
47812;SDS011;34221;45.296;9.516;2022-08-30T01:32:15;33.78;;;27.25;;
47812;SDS011;34221;45.296;9.516;2022-08-30T01:32:40;34.42;;;27.42;;
47812;SDS011;34221;45.296;9.516;2022-08-30T01:33:00;35.25;;;28.10;;
47812;SDS011;34221;45.296;9.516;2022-08-30T01:33:18;33.97;;;27.85;;
47812;SDS011;34221;45.296;9.516;2022-08-30T01:33:34;32.55;;;27.67;;
47812;SDS011;34221;45.296;9.516;2022-08-30T01:33:51;33.20;;;27.25;;
47812;SDS011;34221;45.296;9.516;2022-08-30T01:34:06;35.70;;;27.45;;
47812;SDS011;34221;45.296;9.516;2022-08-30T01:34:22;36.25;;;27.92;;
47812;SDS011;34221;45.296;9.516;2022-08-30T01:34:37;35.55;;;27.35;;
47812;SDS011;34221;45.296;9.516;2022-08-30T01:34:52;35.30;;;27.60;;
47812;SDS011;34221;45.296;9.516;2022-08-30T01:35:07;33.17;;;27.67;;
47812;SDS011;34221;45.296;9.516;2022-08-30T01:35:26;32.60;;;27.77;;
47812;SDS011;34221;45.296;9.516;2022-08-30T01:36:12;35.40;;;28.20;;
47812;SDS011;34221;45.296;9.516;2022-08-30T01:36:28;35.92;;;28.67;;
47812;SDS011;34221;45.296;9.516;2022-08-30T01:36:43;34.30;;;28.77;;
47812;SDS011;34221;45.296;9.516;2022-08-30T01:37:00;36.50;;;29.08;;
47812;SDS011;34221;45.296;9.516;2022-08-30T01:37:16;37.40;;;28.83;;
47812;SDS011;34221;45.296;9.516;2022-08-30T01:37:41;34.30;;;28.38;;
47812;SDS011;34221;45.296;9.516;2022-08-30T01:37:58;35.55;;;29.67;;
47812;SDS011;34221;45.296;9.516;2022-08-30T01:38:15;39.40;;;30.15;;
47812;SDS011;34221;45.296;9.516;2022-08-30T01:38:33;40.25;;;30.38;;
47812;SDS011;34221;45.296;9.516;2022-08-30T01:38:57;37.53;;;30.02;;
47812;SDS011;34221;45.296;9.516;2022-08-30T01:39:12;37.75;;;29.95;;
47812;SDS011;34221;45.296;9.516;2022-08-30T01:39:30;35.08;;;30.10;;
47812;SDS011;34221;45.296;9.516;2022-08-30T01:39:46;35.65;;;30.38;;
47812;SDS011;34221;45.296;9.516;2022-08-30T01:40:39;33.70;;;28.33;;
47812;SDS011;34221;45.296;9.516;2022-08-30T01:40:58;32.63;;;27.73;;
47812;SDS011;34221;45.296;9.516;2022-08-30T01:41:32;38.33;;;29.80;;
47812;SDS011;34221;45.296;9.516;2022-08-30T01:41:49;36.25;;;28.80;;
47812;SDS011;34221;45.296;9.516;2022-08-30T01:42:04;36.53;;;29.05;;
47812;SDS011;34221;45.296;9.516;2022-08-30T01:42:19;37.13;;;30.13;;